Time;durP1;ratioP1;P1;durP2;ratioP2;P2;SDS_P1;SDS_P2;PMS_P1;PMS_P2;Temp;Humidity;BMP_temperature;BMP_pressure;BME280_temperature;BME280_humidity;BME280_pressure;Samples;Min_cycle;Max_cycle;Signal;HPM_P1;HPM_P2
2024/04/14 00:01:49;;;;;;;20.23;7.35;;;;;;;9.33;100.00;100261.13;5389094;26;20007;-72
2024/04/14 00:04:14;;;;;;;19.15;7.25;;;;;;;9.41;100.00;100263.66;5390802;26;20004;-72
2024/04/14 00:06:40;;;;;;;24.63;7.80;;;;;;;9.31;100.00;100257.03;5391810;26;20008;-72
2024/04/14 00:09:05;;;;;;;18.40;7.07;;;;;;;9.35;100.00;100255.56;5419196;26;20012;-73
2024/04/14 00:11:31;;;;;;;20.63;7.78;;;;;;;9.37;100.00;100272.28;5388772;26;20335;-72
2024/04/14 00:13:56;;;;;;;18.45;7.07;;;;;;;9.33;100.00;100279.13;5418833;26;20077;-73
2024/04/14 00:16:21;;;;;;;19.27;7.60;;;;;;;9.33;100.00;100254.94;5391704;26;20000;-73
2024/04/14 00:18:47;;;;;;;15.93;6.55;;;;;;;9.33;100.00;100263.00;5419645;26;20014;-73
2024/04/14 00:21:12;;;;;;;23.35;8.05;;;;;;;9.07;100.00;100224.38;5392642;26;20007;-73
2024/04/14 00:23:38;;;;;;;26.15;8.52;;;;;;;9.27;100.00;100253.06;5361401;26;19996;-73
2024/04/14 00:26:07;;;;;;;23.95;8.25;;;;;;;9.26;100.00;100264.84;5392645;26;20003;-72
2024/04/14 00:28:32;;;;;;;16.25;7.00;;;;;;;9.24;100.00;100267.75;5393498;26;20004;-73
2024/04/14 00:30:58;;;;;;;26.73;8.75;;;;;;;9.17;100.00;100274.94;5391401;26;19999;-73
2024/04/14 00:33:23;;;;;;;27.65;9.35;;;;;;;9.11;100.00;100255.13;5364781;26;20008;-72
2024/04/14 00:35:49;;;;;;;25.98;8.82;;;;;;;9.07;100.00;100258.41;5361970;26;20419;-72
2024/04/14 00:38:14;;;;;;;31.05;8.57;;;;;;;8.92;100.00;100245.16;5424135;26;19996;-73
2024/04/14 00:40:39;;;;;;;29.95;8.30;;;;;;;9.00;100.00;100262.94;5398253;26;20070;-73
2024/04/14 00:43:05;;;;;;;31.00;8.60;;;;;;;8.92;100.00;100253.22;5426707;26;20020;-73
2024/04/14 00:45:30;;;;;;;33.03;9.02;;;;;;;8.90;100.00;100237.28;5398299;26;20003;-73
2024/04/14 00:47:56;;;;;;;22.25;6.82;;;;;;;8.85;100.00;100239.78;5396760;26;20011;-73
2024/04/14 00:50:23;;;;;;;25.60;7.28;;;;;;;8.79;100.00;100247.81;5407054;26;20000;-72
2024/04/14 00:52:49;;;;;;;25.27;6.20;;;;;;;8.59;100.00;100218.22;5402116;26;19995;-73
2024/04/14 00:55:15;;;;;;;25.90;5.88;;;;;;;8.60;100.00;100201.91;5402242;26;20458;-72
2024/04/14 00:57:40;;;;;;;24.30;5.35;;;;;;;8.57;100.00;100190.78;5369565;26;20011;-73
2024/04/14 01:00:07;;;;;;;27.58;5.55;;;;;;;8.62;100.00;100202.56;5398698;26;19996;-72
2024/04/14 01:02:35;;;;;;;27.08;4.32;;;;;;;8.37;100.00;100187.97;5401862;26;20010;-73
2024/04/14 01:05:01;;;;;;;25.52;4.63;;;;;;;8.49;100.00;100215.91;5430643;26;20007;-72
2024/04/14 01:07:27;;;;;;;30.50;5.38;;;;;;;8.44;100.00;100205.81;5430588;26;19988;-73
2024/04/14 01:09:53;;;;;;;21.95;4.70;;;;;;;8.44;100.00;100218.34;5403120;26;20000;-73
2024/04/14 01:12:18;;;;;;;34.08;5.13;;;;;;;8.39;100.00;100218.97;5431572;26;20015;-73
2024/04/14 01:14:44;;;;;;;24.63;3.97;;;;;;;8.40;100.00;100234.00;5403419;26;20003;-72
2024/04/14 01:17:09;;;;;;;25.45;4.50;;;;;;;8.13;100.00;100189.31;5402673;26;20334;-73
2024/04/14 01:19:35;;;;;;;24.85;4.35;;;;;;;8.21;100.00;100213.25;5432561;26;20000;-72
2024/04/14 01:22:00;;;;;;;25.65;4.55;;;;;;;8.26;100.00;100221.53;5404462;26;20385;-72
2024/04/14 01:24:26;;;;;;;24.40;4.55;;;;;;;8.14;100.00;100217.75;5432326;26;19992;-73
2024/04/14 01:26:51;;;;;;;26.65;4.82;;;;;;;8.13;100.00;100234.88;5369422;26;20007;-72
2024/04/14 01:29:17;;;;;;;26.67;4.30;;;;;;;8.05;100.00;100221.66;5402217;26;20485;-72
2024/04/14 01:31:43;;;;;;;21.73;3.58;;;;;;;8.08;100.00;100213.19;5336545;26;20326;-72
2024/04/14 01:34:08;;;;;;;26.55;4.18;;;;;;;8.06;100.00;100213.41;5426948;26;20007;-72
2024/04/14 01:36:34;;;;;;;20.45;4.00;;;;;;;7.92;100.00;100196.41;5399418;26;20003;-72
2024/04/14 01:38:59;;;;;;;18.42;3.80;;;;;;;7.96;100.00;100200.34;5402107;26;20411;-72
2024/04/14 01:41:25;;;;;;;22.92;3.80;;;;;;;7.93;100.00;100206.09;5371875;26;19991;-72
2024/04/14 01:43:50;;;;;;;16.98;3.35;;;;;;;7.83;100.00;100189.56;5432185;26;19991;-72
2024/04/14 01:46:16;;;;;;;24.92;4.10;;;;;;;7.97;100.00;100212.72;5368560;26;20065;-72
2024/04/14 01:48:41;;;;;;;25.88;4.30;;;;;;;7.91;100.00;100201.97;5380149;26;19996;-71
2024/04/14 01:51:07;;;;;;;26.58;4.30;;;;;;;8.04;100.00;100211.94;5422290;26;19999;-74
2024/04/14 01:53:32;;;;;;;17.17;3.00;;;;;;;8.05;100.00;100217.09;5429963;26;20003;-72
2024/04/14 01:55:59;;;;;;;30.40;4.55;;;;;;;7.79;100.00;100155.34;5369946;26;20003;-72
2024/04/14 01:58:24;;;;;;;32.83;4.57;;;;;;;8.10;100.00;100211.16;5428651;26;20012;-72
2024/04/14 02:00:49;;;;;;;33.60;4.38;;;;;;;8.10;100.00;100220.00;5423453;26;20010;-72
2024/04/14 02:03:15;;;;;;;31.15;5.22;;;;;;;8.10;100.00;100217.31;5424214;26;20042;-72
2024/04/14 02:05:40;;;;;;;31.88;4.85;;;;;;;8.08;100.00;100207.81;5366320;26;20003;-71
2024/04/14 02:08:06;;;;;;;23.33;4.75;;;;;;;7.94;100.00;100210.44;5389955;26;20011;-72
2024/04/14 02:10:38;;;;;;;23.35;4.63;;;;;;;7.86;100.00;100202.56;5392219;26;20072;-71
2024/04/14 02:13:03;;;;;;;25.48;3.80;;;;;;;7.82;100.00;100209.34;5422836;26;20404;-71
2024/04/14 02:15:29;;;;;;;32.72;4.63;;;;;;;7.66;100.00;100189.03;5392367;26;20097;-71
2024/04/14 02:17:54;;;;;;;21.40;4.35;;;;;;;7.44;100.00;100156.13;5363285;26;20006;-72
2024/04/14 02:20:20;;;;;;;18.75;3.22;;;;;;;7.54;100.00;100185.22;5389506;26;19992;-72
2024/04/14 02:22:45;;;;;;;27.67;4.63;;;;;;;7.49;100.00;100198.38;5392063;26;19992;-72
2024/04/14 02:25:10;;;;;;;23.25;3.70;;;;;;;7.48;100.00;100180.63;5362075;26;20011;-72
2024/04/14 02:27:36;;;;;;;23.52;3.30;;;;;;;7.48;100.00;100192.19;5394112;26;19992;-72
2024/04/14 02:30:01;;;;;;;21.05;3.72;;;;;;;7.47;100.00;100171.78;5368339;26;19995;-72
2024/04/14 02:32:27;;;;;;;23.15;3.65;;;;;;;7.44;100.00;100187.41;5393317;26;20024;-71
2024/04/14 02:34:52;;;;;;;26.23;3.67;;;;;;;7.38;100.00;100182.84;5363250;26;19992;-72
2024/04/14 02:37:18;;;;;;;26.88;3.75;;;;;;;7.38;100.00;100180.97;5423695;26;20002;-72
2024/04/14 02:39:44;;;;;;;20.63;3.83;;;;;;;7.35;100.00;100172.50;5424602;26;19999;-72
2024/04/14 02:42:09;;;;;;;18.58;3.75;;;;;;;7.21;100.00;100166.22;5423798;26;19997;-72
2024/04/14 02:44:35;;;;;;;26.15;4.28;;;;;;;7.20;100.00;100167.25;5389685;26;19999;-72
2024/04/14 02:47:00;;;;;;;24.65;3.50;;;;;;;7.07;100.00;100162.59;5392664;26;19996;-71
2024/04/14 02:49:28;;;;;;;16.98;2.70;;;;;;;7.05;100.00;100159.28;5391017;26;20077;-71
2024/04/14 02:51:54;;;;;;;29.15;4.20;;;;;;;7.00;100.00;100167.06;5338208;26;20008;-71
2024/04/14 02:54:19;;;;;;;24.50;4.10;;;;;;;6.92;100.00;100176.06;5420110;26;20077;-72
2024/04/14 02:56:45;;;;;;;23.70;3.70;;;;;;;6.89;100.00;100162.22;5375447;26;20046;-72
2024/04/14 02:59:10;;;;;;;29.55;4.40;;;;;;;6.88;100.00;100158.72;5409056;26;20001;-71
2024/04/14 03:01:36;;;;;;;25.38;3.70;;;;;;;6.86;100.00;100163.44;5414786;26;20488;-72
2024/04/14 03:04:01;;;;;;;24.55;3.22;;;;;;;6.85;100.00;100166.28;5383720;26;20007;-72
2024/04/14 03:06:26;;;;;;;20.40;3.03;;;;;;;6.86;100.00;100168.78;5414851;26;20451;-71
2024/04/14 03:08:52;;;;;;;26.98;4.15;;;;;;;6.69;100.00;100154.84;5379907;26;19996;-72
2024/04/14 03:11:17;;;;;;;30.63;4.13;;;;;;;6.78;100.00;100161.69;5379708;26;20003;-71
2024/04/14 03:13:43;;;;;;;27.45;4.35;;;;;;;6.80;100.00;100169.56;5416163;26;20007;-72
2024/04/14 03:16:09;;;;;;;28.60;4.72;;;;;;;6.70;100.00;100153.00;5415720;26;20008;-72
2024/04/14 03:18:35;;;;;;;18.50;3.10;;;;;;;6.83;100.00;100175.34;5413831;26;20007;-72
2024/04/14 03:21:02;;;;;;;26.60;4.18;;;;;;;6.82;100.00;100165.69;5376458;26;20398;-71
2024/04/14 03:23:28;;;;;;;19.42;3.03;;;;;;;6.55;100.00;100121.78;5414213;26;20000;-72
2024/04/14 03:25:55;;;;;;;21.45;3.50;;;;;;;6.65;100.00;100147.38;5414831;26;20008;-71
2024/04/14 03:28:25;;;;;;;23.40;3.47;;;;;;;6.75;100.00;100162.06;5380300;26;20003;-72
2024/04/14 03:30:52;;;;;;;28.48;5.13;;;;;;;6.75;100.00;100156.72;5416731;26;20000;-72
2024/04/14 03:33:18;;;;;;;22.40;3.22;;;;;;;6.58;100.00;100132.09;5415579;26;20007;-71
2024/04/14 03:35:44;;;;;;;22.20;3.65;;;;;;;6.77;100.00;100162.72;5378263;26;20004;-71
2024/04/14 03:38:09;;;;;;;22.33;3.88;;;;;;;6.77;100.00;100164.56;5377866;26;19992;-71
2024/04/14 03:40:35;;;;;;;26.48;3.67;;;;;;;6.78;100.00;100174.25;5416953;26;20011;-71
2024/04/14 03:43:00;;;;;;;28.83;4.47;;;;;;;6.78;100.00;100158.22;5416271;26;20004;-72
2024/04/14 03:45:25;;;;;;;22.85;4.38;;;;;;;6.83;100.00;100163.81;5417004;26;19992;-71
2024/04/14 03:47:52;;;;;;;21.05;3.70;;;;;;;6.81;100.00;100155.16;5380926;26;19996;-71
2024/04/14 03:50:18;;;;;;;31.08;4.50;;;;;;;6.86;100.00;100171.47;5416614;26;20063;-72
2024/04/14 03:52:44;;;;;;;25.15;3.95;;;;;;;6.85;100.00;100183.16;5415770;26;19997;-71
2024/04/14 03:55:09;;;;;;;28.10;4.63;;;;;;;6.63;100.00;100158.28;5416530;26;19992;-71
2024/04/14 03:57:35;;;;;;;14.75;2.80;;;;;;;6.81;100.00;100174.69;5475221;26;19996;-71
2024/04/14 04:00:00;;;;;;;28.02;4.60;;;;;;;6.74;100.00;100168.44;5416442;26;20336;-72
2024/04/14 04:02:26;;;;;;;23.05;3.50;;;;;;;6.75;100.00;100169.28;5386344;26;20073;-71
2024/04/14 04:04:51;;;;;;;19.55;2.80;;;;;;;6.74;100.00;100179.16;5419780;26;19996;-74
2024/04/14 04:07:16;;;;;;;21.88;3.33;;;;;;;6.55;100.00;100143.16;5358772;26;20359;-71
2024/04/14 04:09:42;;;;;;;18.70;3.70;;;;;;;6.74;100.00;100179.16;5417585;26;20343;-71
2024/04/14 04:12:07;;;;;;;22.98;4.05;;;;;;;6.74;100.00;100175.66;5417881;26;19996;-72
2024/04/14 04:14:33;;;;;;;21.20;3.22;;;;;;;6.44;100.00;100124.13;5379542;26;20072;-72
2024/04/14 04:16:58;;;;;;;20.13;3.40;;;;;;;6.72;100.00;100165.16;5378508;26;19996;-72
2024/04/14 04:19:25;;;;;;;21.55;3.40;;;;;;;6.76;100.00;100161.09;5376598;26;20004;-71
2024/04/14 04:21:52;;;;;;;24.05;3.85;;;;;;;6.65;100.00;100150.03;5411070;26;20024;-71
2024/04/14 04:24:17;;;;;;;19.67;3.60;;;;;;;6.79;100.00;100178.59;5411877;26;20343;-72
2024/04/14 04:26:43;;;;;;;14.68;3.13;;;;;;;6.80;100.00;100164.19;5409285;26;20000;-71
2024/04/14 04:29:09;;;;;;;17.23;2.90;;;;;;;6.79;100.00;100159.88;5410480;26;19992;-71
2024/04/14 04:31:35;;;;;;;22.98;3.90;;;;;;;6.80;100.00;100161.53;5410107;26;20000;-71
2024/04/14 04:34:00;;;;;;;15.48;2.83;;;;;;;6.88;100.00;100171.25;5408840;26;20015;-71
2024/04/14 04:36:25;;;;;;;23.88;3.78;;;;;;;6.90;100.00;100167.38;5375536;26;20015;-71
2024/04/14 04:38:55;;;;;;;17.83;3.40;;;;;;;6.83;100.00;100145.09;5389326;26;19993;-71
2024/04/14 04:41:21;;;;;;;23.23;3.97;;;;;;;6.89;100.00;100159.53;5388193;26;20005;-72
2024/04/14 04:43:47;;;;;;;24.17;3.13;;;;;;;6.82;100.00;100171.03;5419509;26;19997;-72
2024/04/14 04:46:12;;;;;;;23.75;3.60;;;;;;;6.83;100.00;100161.97;5416561;26;19997;-72
2024/04/14 04:48:38;;;;;;;25.30;3.67;;;;;;;6.87;100.00;100169.63;5417698;26;20008;-71
2024/04/14 04:51:04;;;;;;;20.55;4.00;;;;;;;6.81;100.00;100173.88;5385756;26;20001;-71
2024/04/14 04:53:29;;;;;;;24.95;4.47;;;;;;;6.80;100.00;100161.53;5451591;26;19994;-71
2024/04/14 04:55:55;;;;;;;17.30;3.05;;;;;;;6.87;100.00;100164.28;5427445;26;20019;-71
2024/04/14 04:58:20;;;;;;;15.05;2.85;;;;;;;6.84;100.00;100165.47;5398388;26;20354;-71
2024/04/14 05:00:56;;;;;;;28.30;3.83;;;;;;;6.92;100.00;100162.69;5429843;26;19999;-71
2024/04/14 05:03:22;;;;;;;30.52;5.32;;;;;;;6.92;100.00;100160.00;5430839;26;20007;-71
2024/04/14 05:05:58;;;;;;;18.50;3.55;;;;;;;6.93;100.00;100161.66;5429736;26;20334;-71
2024/04/14 05:08:24;;;;;;;27.05;4.40;;;;;;;6.92;100.00;100168.03;5461962;26;19995;-71
2024/04/14 05:10:56;;;;;;;18.33;3.25;;;;;;;6.96;100.00;100171.97;5461190;26;20014;-71
2024/04/14 05:13:22;;;;;;;32.63;4.80;;;;;;;6.97;100.00;100165.59;5428761;26;20006;-71
2024/04/14 05:15:48;;;;;;;28.27;4.03;;;;;;;7.66;100.00;100166.78;5460208;26;20006;-71
2024/04/14 05:18:13;;;;;;;30.20;4.47;;;;;;;7.54;100.00;100145.06;5461519;26;19991;-71
2024/04/14 05:20:39;;;;;;;25.05;4.28;;;;;;;7.76;100.00;100172.63;5400291;26;20003;-72
2024/04/14 05:23:05;;;;;;;27.15;3.92;;;;;;;8.24;100.00;100148.53;5462273;26;20015;-72
2024/04/14 05:25:30;;;;;;;28.30;4.80;;;;;;;8.23;100.00;100158.44;5464839;26;19991;-71
2024/04/14 05:27:56;;;;;;;25.77;3.50;;;;;;;8.26;100.00;100157.22;5462872;26;20006;-71
2024/04/14 05:30:21;;;;;;;24.73;3.78;;;;;;;8.46;100.00;100147.44;5432627;26;20013;-71
2024/04/14 05:32:46;;;;;;;19.20;2.88;;;;;;;8.51;100.00;100105.75;5401648;26;19994;-71
2024/04/14 05:35:13;;;;;;;23.15;3.58;;;;;;;8.52;100.00;100166.44;5433866;26;19991;-71
2024/04/14 05:37:39;;;;;;;26.88;4.47;;;;;;;8.03;100.00;100175.47;5432979;26;20002;-72
2024/04/14 05:40:06;;;;;;;21.08;3.75;;;;;;;7.79;100.00;100172.22;5461443;26;20006;-71
2024/04/14 05:42:31;;;;;;;18.00;2.67;;;;;;;7.87;100.00;100195.34;5429504;26;19991;-72
2024/04/14 05:44:57;;;;;;;21.75;3.63;;;;;;;7.88;100.00;100192.47;5463549;26;19999;-71
2024/04/14 05:47:22;;;;;;;16.10;3.88;;;;;;;7.79;100.00;100166.88;5431122;26;20002;-72
2024/04/14 05:49:47;;;;;;;16.65;3.15;;;;;;;7.48;100.00;100169.94;5462964;26;20006;-71
2024/04/14 05:52:13;;;;;;;19.70;3.50;;;;;;;7.53;100.00;100195.09;5402697;26;20052;-71
2024/04/14 05:54:38;;;;;;;19.08;3.22;;;;;;;7.42;100.00;100176.91;5462628;26;20071;-72
2024/04/14 05:57:04;;;;;;;20.38;3.97;;;;;;;7.44;100.00;100190.91;5430665;26;20060;-72
2024/04/14 05:59:29;;;;;;;24.88;4.07;;;;;;;7.47;100.00;100179.81;5463026;26;20442;-71
2024/04/14 06:01:55;;;;;;;27.98;5.03;;;;;;;7.47;100.00;100171.78;5463004;26;19995;-72
2024/04/14 06:04:20;;;;;;;26.27;4.32;;;;;;;7.52;100.00;100172.03;5462866;26;19995;-72
2024/04/14 06:06:49;;;;;;;28.35;4.45;;;;;;;7.60;100.00;100176.41;5429883;26;19995;-71
2024/04/14 06:09:15;;;;;;;25.92;3.65;;;;;;;7.34;100.00;100120.84;5464098;26;20391;-73
2024/04/14 06:11:40;;;;;;;12.50;2.67;;;;;;;7.48;100.00;100159.22;5456520;26;20014;-72
2024/04/14 06:14:06;;;;;;;21.00;4.03;;;;;;;7.46;100.00;100145.22;5401189;26;19995;-72
2024/04/14 06:16:32;;;;;;;14.93;3.88;;;;;;;7.47;100.00;100141.53;5464330;26;20516;-72
2024/04/14 06:18:57;;;;;;;16.05;2.58;;;;;;;7.77;100.00;100176.94;5430202;26;20006;-71
2024/04/14 06:21:22;;;;;;;32.75;4.47;;;;;;;7.81;100.00;100172.03;5463400;26;20014;-71
2024/04/14 06:23:48;;;;;;;23.83;3.85;;;;;;;7.78;100.00;100173.22;5463666;26;20009;-71
2024/04/14 06:26:13;;;;;;;26.05;3.97;;;;;;;7.81;100.00;100163.97;5434818;26;20117;-72
2024/04/14 06:28:39;;;;;;;22.75;3.60;;;;;;;7.79;100.00;100169.56;5465333;26;20530;-73
2024/04/14 06:31:04;;;;;;;25.58;4.18;;;;;;;7.87;100.00;100158.66;5404685;26;19995;-74
2024/04/14 06:33:30;;;;;;;28.52;4.30;;;;;;;7.86;100.00;100161.56;5467552;26;19991;-72
2024/04/14 06:35:57;;;;;;;20.48;2.92;;;;;;;7.97;100.00;100161.00;5467897;26;20055;-74
2024/04/14 06:38:23;;;;;;;27.02;4.45;;;;;;;7.92;100.00;100158.91;5468714;26;19999;-73
2024/04/14 06:40:48;;;;;;;23.15;4.45;;;;;;;7.89;100.00;100153.13;5462900;26;20001;-73
2024/04/14 06:43:15;;;;;;;26.70;5.03;;;;;;;8.03;100.00;100156.69;5432099;26;19999;-74
2024/04/14 06:45:40;;;;;;;25.65;4.30;;;;;;;7.96;100.00;100136.06;5466000;26;20009;-74
2024/04/14 06:48:06;;;;;;;27.98;4.50;;;;;;;8.02;100.00;100177.31;5404312;26;19995;-70
2024/04/14 06:50:32;;;;;;;19.45;4.32;;;;;;;8.16;100.00;100159.44;5432083;26;20025;-70
2024/04/14 06:52:58;;;;;;;31.80;4.32;;;;;;;7.95;100.00;100126.38;5462466;26;19995;-72
2024/04/14 06:55:24;;;;;;;27.20;4.18;;;;;;;8.12;100.00;100168.91;5458760;26;19999;-71
2024/04/14 06:57:49;;;;;;;23.73;4.47;;;;;;;8.04;100.00;100185.97;5400256;26;20017;-71
2024/04/14 07:00:16;;;;;;;31.13;4.32;;;;;;;8.11;100.00;100183.31;5437268;26;19995;-73
2024/04/14 07:02:41;;;;;;;21.73;3.78;;;;;;;8.10;100.00;100165.59;5376762;26;19998;-71
2024/04/14 07:05:07;;;;;;;23.42;4.18;;;;;;;8.26;100.00;100202.78;5466307;26;20002;-72
2024/04/14 07:07:32;;;;;;;21.30;3.85;;;;;;;8.16;100.00;100175.53;5435878;26;20007;-72
2024/04/14 07:09:57;;;;;;;28.65;5.40;;;;;;;8.22;100.00;100158.66;5433988;26;20081;-72
2024/04/14 07:12:23;;;;;;;29.17;4.47;;;;;;;8.31;100.00;100176.22;5435832;26;20005;-72
2024/04/14 07:14:48;;;;;;;16.95;3.80;;;;;;;8.24;100.00;100165.47;5407142;26;20005;-72
2024/04/14 07:17:15;;;;;;;33.53;5.28;;;;;;;8.36;100.00;100163.03;5436080;26;20447;-72
2024/04/14 07:19:40;;;;;;;25.15;5.15;;;;;;;8.34;100.00;100174.97;5433418;26;20006;-73
2024/04/14 07:22:06;;;;;;;29.40;4.05;;;;;;;8.34;100.00;100153.53;5403709;26;19998;-72
2024/04/14 07:24:31;;;;;;;29.33;4.32;;;;;;;8.27;100.00;100169.59;5435250;26;20006;-72
2024/04/14 07:26:57;;;;;;;19.25;3.67;;;;;;;8.33;100.00;100174.16;5434772;26;20405;-72
2024/04/14 07:29:22;;;;;;;25.55;4.97;;;;;;;8.36;100.00;100176.44;5435239;26;20010;-72
2024/04/14 07:31:47;;;;;;;28.63;4.68;;;;;;;8.30;100.00;100190.63;5375841;26;20536;-71
2024/04/14 07:34:13;;;;;;;16.67;3.08;;;;;;;8.38;100.00;100185.16;5464998;26;20048;-73
2024/04/14 07:36:38;;;;;;;27.60;4.38;;;;;;;8.38;100.00;100182.47;5402753;26;19991;-73
2024/04/14 07:39:04;;;;;;;23.33;4.53;;;;;;;8.40;100.00;100192.97;5461187;26;19995;-73
2024/04/14 07:41:30;;;;;;;25.73;3.80;;;;;;;8.41;100.00;100208.03;5464113;26;20006;-73
2024/04/14 07:43:56;;;;;;;20.40;3.67;;;;;;;8.38;100.00;100209.28;5435506;26;20033;-71
2024/04/14 07:46:25;;;;;;;18.58;3.33;;;;;;;8.31;100.00;100219.13;5464669;26;20058;-72
2024/04/14 07:48:51;;;;;;;20.35;4.70;;;;;;;8.36;100.00;100242.63;5462987;26;20005;-71
2024/04/14 07:51:17;;;;;;;24.15;4.32;;;;;;;8.31;100.00;100226.31;5462663;26;20003;-72
2024/04/14 07:53:42;;;;;;;22.52;3.42;;;;;;;8.40;100.00;100225.16;5401281;26;19999;-72
2024/04/14 07:56:08;;;;;;;28.65;5.10;;;;;;;8.42;100.00;100237.34;5404805;26;20011;-72
2024/04/14 07:58:33;;;;;;;30.77;4.35;;;;;;;8.49;100.00;100244.59;5433713;26;20052;-72
2024/04/14 08:00:58;;;;;;;25.65;4.55;;;;;;;8.59;100.00;100231.63;5436070;26;19987;-72
2024/04/14 08:03:24;;;;;;;19.58;3.58;;;;;;;8.58;100.00;100197.81;5430860;26;20045;-72
2024/04/14 08:05:49;;;;;;;22.67;4.18;;;;;;;8.51;100.00;100218.38;5465082;26;20473;-72
2024/04/14 08:08:15;;;;;;;25.15;4.55;;;;;;;8.27;100.00;100200.94;5464364;26;20549;-73
2024/04/14 08:10:40;;;;;;;21.48;3.90;;;;;;;8.56;100.00;100226.66;5402079;26;19995;-72
2024/04/14 08:13:06;;;;;;;13.63;3.25;;;;;;;8.59;100.00;100255.78;5463374;26;20044;-71
2024/04/14 08:15:31;;;;;;;21.52;3.70;;;;;;;8.19;100.00;100210.78;5402794;26;20049;-72
2024/04/14 08:17:57;;;;;;;23.08;3.95;;;;;;;8.54;100.00;100283.16;5427515;26;20519;-72
2024/04/14 08:20:24;;;;;;;23.95;4.75;;;;;;;8.62;100.00;100282.19;5461508;26;20009;-72
2024/04/14 08:22:50;;;;;;;29.60;5.63;;;;;;;8.46;100.00;100281.47;5465902;26;19995;-72
2024/04/14 08:25:16;;;;;;;20.08;4.68;;;;;;;8.41;100.00;100277.72;5434078;26;20010;-72
2024/04/14 08:27:41;;;;;;;26.67;5.00;;;;;;;8.52;100.00;100279.88;5466916;26;20009;-72
2024/04/14 08:30:08;;;;;;;28.02;5.13;;;;;;;8.52;100.00;100274.50;5432387;26;19998;-72
2024/04/14 08:32:33;;;;;;;33.42;5.50;;;;;;;8.66;100.00;100276.22;5434875;26;20059;-72
2024/04/14 08:34:59;;;;;;;30.00;5.32;;;;;;;8.69;100.00;100294.59;5435160;26;20003;-72
2024/04/14 08:37:25;;;;;;;19.58;3.40;;;;;;;8.53;100.00;100281.53;5466323;26;20002;-72
2024/04/14 08:39:50;;;;;;;23.30;3.88;;;;;;;8.63;100.00;100262.38;5404036;26;19986;-72
2024/04/14 08:42:18;;;;;;;26.77;4.72;;;;;;;8.72;100.00;100296.06;5494462;26;20044;-72
2024/04/14 08:44:46;;;;;;;21.52;4.50;;;;;;;8.60;100.00;100276.19;5435339;26;20238;-72
2024/04/14 08:47:14;;;;;;;24.27;3.72;;;;;;;8.69;100.00;100286.56;5465523;26;20010;-72
2024/04/14 08:49:40;;;;;;;24.13;4.68;;;;;;;8.63;100.00;100283.84;5464791;26;19995;-72
2024/04/14 08:52:06;;;;;;;25.48;4.65;;;;;;;8.75;100.00;100306.41;5465048;26;20407;-72
2024/04/14 08:54:32;;;;;;;22.40;4.15;;;;;;;8.56;100.00;100289.16;5466218;26;20330;-72
2024/04/14 08:57:01;;;;;;;21.45;5.18;;;;;;;8.61;100.00;100310.88;5434291;26;19999;-72
2024/04/14 08:59:27;;;;;;;25.50;5.22;;;;;;;8.70;100.00;100319.56;5408095;26;20239;-72
2024/04/14 09:01:52;;;;;;;22.20;4.68;;;;;;;8.62;100.00;100284.88;5471555;26;19998;-72
2024/04/14 09:04:18;;;;;;;22.65;3.38;;;;;;;8.78;100.00;100295.25;5407505;26;20002;-72
2024/04/14 09:06:44;;;;;;;18.00;3.47;;;;;;;8.61;100.00;100302.81;5436728;26;19998;-72
2024/04/14 09:09:13;;;;;;;20.10;3.05;;;;;;;8.83;100.00;100322.31;5471573;26;19994;-73
2024/04/14 09:11:48;;;;;;;18.92;3.92;;;;;;;8.76;100.00;100320.63;5472202;26;20068;-72
2024/04/14 09:14:14;;;;;;;33.50;5.05;;;;;;;8.71;100.00;100334.66;5440625;26;20031;-72
2024/04/14 09:16:39;;;;;;;21.13;3.72;;;;;;;8.75;100.00;100333.22;5471961;26;19995;-72
2024/04/14 09:19:05;;;;;;;28.25;4.28;;;;;;;8.81;100.00;100337.78;5409741;26;19995;-72
2024/04/14 09:21:30;;;;;;;32.78;4.85;;;;;;;8.98;100.00;100362.44;5439258;26;19994;-72
2024/04/14 09:23:56;;;;;;;28.95;4.88;;;;;;;9.00;100.00;100354.16;5436342;26;20053;-72
2024/04/14 09:26:23;;;;;;;23.70;4.22;;;;;;;8.80;100.00;100359.44;5440642;26;20049;-72
2024/04/14 09:29:00;;;;;;;25.55;3.83;;;;;;;8.72;100.00;100356.94;5463387;26;19999;-72
2024/04/14 09:31:26;;;;;;;30.10;5.65;;;;;;;8.86;100.00;100366.69;5435289;26;20002;-73
2024/04/14 09:33:51;;;;;;;27.95;4.80;;;;;;;8.96;100.00;100366.34;5457903;26;20000;-72
2024/04/14 09:36:23;;;;;;;25.67;5.20;;;;;;;8.69;100.00;100317.91;5436481;26;20065;-73
2024/04/14 09:38:50;;;;;;;25.98;3.97;;;;;;;8.88;100.00;100361.97;5435357;26;20003;-73
2024/04/14 09:41:16;;;;;;;27.83;3.67;;;;;;;8.66;100.00;100356.69;5408909;26;20001;-72
2024/04/14 09:43:44;;;;;;;16.63;3.13;;;;;;;8.85;100.00;100367.72;5469575;26;20003;-73
2024/04/14 09:46:10;;;;;;;20.10;3.13;;;;;;;8.79;100.00;100358.63;5467713;26;20002;-72
2024/04/14 09:48:37;;;;;;;28.38;4.80;;;;;;;8.84;100.00;100374.09;5436120;26;20006;-73
2024/04/14 09:51:04;;;;;;;25.25;4.88;;;;;;;8.87;100.00;100369.19;5466681;26;20073;-75
2024/04/14 09:53:32;;;;;;;25.50;3.97;;;;;;;8.69;100.00;100345.56;5437080;26;19995;-75
2024/04/14 09:55:59;;;;;;;27.35;4.72;;;;;;;8.89;100.00;100369.81;5436151;26;20424;-74
2024/04/14 09:58:24;;;;;;;29.48;3.85;;;;;;;8.92;100.00;100373.97;5466843;26;19995;-74
2024/04/14 10:00:51;;;;;;;33.65;5.93;;;;;;;8.70;100.00;100379.41;5404678;26;20513;-74
2024/04/14 10:03:20;;;;;;;18.45;3.45;;;;;;;8.66;100.00;100354.00;5434314;26;20373;-73
2024/04/14 10:05:56;;;;;;;19.02;3.55;;;;;;;8.70;100.00;100370.53;5465921;26;20055;-73
2024/04/14 10:08:21;;;;;;;24.38;4.43;;;;;;;8.35;100.00;100359.75;5393456;26;20016;-73
2024/04/14 10:10:51;;;;;;;27.88;5.18;;;;;;;8.68;100.00;100399.41;5385959;26;20003;-71
2024/04/14 10:13:17;;;;;;;29.00;5.13;;;;;;;8.75;100.00;100418.22;5392331;26;20011;-72
2024/04/14 10:15:54;;;;;;;22.60;3.83;;;;;;;8.68;100.00;100413.66;5365531;26;20000;-72
2024/04/14 10:18:20;;;;;;;25.05;4.40;;;;;;;8.73;100.00;100444.41;5397121;26;20066;-73
2024/04/14 10:20:47;;;;;;;27.80;4.78;;;;;;;8.59;100.00;100419.34;5396229;26;20000;-72
2024/04/14 10:23:20;;;;;;;15.50;3.03;;;;;;;8.78;100.00;100433.94;5367532;26;20028;-71
2024/04/14 10:25:47;;;;;;;26.25;4.93;;;;;;;8.71;100.00;100436.56;5366604;26;20012;-72
2024/04/14 10:28:20;;;;;;;28.00;4.32;;;;;;;8.77;100.00;100426.91;5361796;26;19996;-72
2024/04/14 10:30:49;;;;;;;16.42;3.15;;;;;;;8.84;100.00;100425.06;5364313;26;20399;-72
2024/04/14 10:33:21;;;;;;;25.27;4.93;;;;;;;8.78;100.00;100424.03;5392089;26;20459;-76
2024/04/14 10:35:47;;;;;;;25.10;4.25;;;;;;;8.81;100.00;100426.31;5364353;26;20019;-72
2024/04/14 10:38:21;;;;;;;25.60;4.45;;;;;;;8.67;100.00;100417.34;5364396;26;19989;-73
2024/04/14 10:40:47;;;;;;;27.33;5.07;;;;;;;8.89;100.00;100433.38;5364281;26;20032;-75
2024/04/14 10:43:23;;;;;;;30.40;5.43;;;;;;;8.89;100.00;100412.75;5364299;26;20000;-76
2024/04/14 10:45:49;;;;;;;21.08;4.38;;;;;;;9.04;100.00;100431.41;5365120;26;20003;-74
2024/04/14 10:48:14;;;;;;;23.85;4.43;;;;;;;8.97;100.00;100422.47;5390796;26;20008;-74
2024/04/14 10:50:41;;;;;;;27.92;4.88;;;;;;;8.97;100.00;100400.19;5364519;26;20000;-75
2024/04/14 10:53:07;;;;;;;21.60;3.40;;;;;;;8.95;100.00;100400.41;5459775;26;19990;-72
2024/04/14 10:55:33;;;;;;;16.10;2.78;;;;;;;9.08;100.00;100391.59;5433575;26;19998;-73
2024/04/14 10:57:58;;;;;;;20.92;4.28;;;;;;;9.14;100.00;100417.63;5466922;26;19991;-72
2024/04/14 11:00:25;;;;;;;23.60;4.57;;;;;;;8.97;100.00;100378.72;5434200;26;20003;-71
2024/04/14 11:02:51;;;;;;;24.65;4.07;;;;;;;8.85;100.00;100371.25;5464737;26;19994;-71
2024/04/14 11:05:19;;;;;;;25.15;5.10;;;;;;;9.01;100.00;100388.03;5431083;26;20023;-71
2024/04/14 11:07:45;;;;;;;38.40;6.47;;;;;;;8.74;100.00;100346.81;5429566;26;19995;-71
2024/04/14 11:10:12;;;;;;;19.23;4.03;;;;;;;9.09;100.00;100393.22;5431284;26;20013;-71
2024/04/14 11:12:40;;;;;;;19.08;3.88;;;;;;;9.10;100.00;100368.03;5462081;26;20006;-71